Time;durP1;ratioP1;P1;durP2;ratioP2;P2;SDS_P1;SDS_P2;PMS_P1;PMS_P2;Temp;Humidity;BMP_temperature;BMP_pressure;BME280_temperature;BME280_humidity;BME280_pressure;Samples;Min_cycle;Max_cycle;Signal;HPM_P1;HPM_P2
2023/04/05 00:01:31;;;;;;;0.13;0.13;;;;;;;6.62;82.83;99954.63;5071087;28;20051;-67
2023/04/05 00:03:59;;;;;;;0.43;0.25;;;;;;;6.55;83.11;99953.13;5105635;28;20047;-67
2023/04/05 00:06:25;;;;;;;0.10;0.10;;;;;;;6.57;83.46;99951.81;5054572;28;20040;-68
2023/04/05 00:08:54;;;;;;;0.20;0.20;;;;;;;6.60;83.28;99953.22;5104453;28;20047;-68
2023/04/05 00:11:21;;;;;;;0.20;0.20;;;;;;;6.58;83.32;99958.06;5086205;28;20047;-67
2023/04/05 00:13:47;;;;;;;0.20;0.20;;;;;;;6.50;83.54;99951.13;5087375;28;20047;-67
2023/04/05 00:16:14;;;;;;;0.10;0.10;;;;;;;6.56;84.01;99941.19;5103875;28;20055;-66
2023/04/05 00:18:48;;;;;;;0.27;0.27;;;;;;;6.60;83.68;99945.91;5085543;28;20464;-68
2023/04/05 00:21:15;;;;;;;0.28;0.20;;;;;;;6.65;83.54;99947.88;5102708;28;20309;-68
2023/04/05 00:23:43;;;;;;;0.10;0.10;;;;;;;6.62;83.54;99948.34;5085459;28;20480;-68
2023/04/05 00:26:10;;;;;;;0.20;0.20;;;;;;;6.51;83.69;99947.34;5085130;28;20055;-67
2023/04/05 00:28:36;;;;;;;0.15;0.15;;;;;;;6.55;83.64;99953.13;5084154;28;20380;-68
2023/04/05 00:31:04;;;;;;;0.10;0.10;;;;;;;6.49;83.91;99961.19;5102985;28;20051;-67
2023/04/05 00:33:30;;;;;;;0.20;0.20;;;;;;;6.46;83.99;99952.69;5066799;28;20089;-68
2023/04/05 00:36:07;;;;;;;0.10;0.10;;;;;;;6.41;84.08;99949.91;5085889;28;20413;-68
2023/04/05 00:38:33;;;;;;;0.15;0.15;;;;;;;6.33;84.40;99953.84;5087939;28;20577;-68
2023/04/05 00:40:59;;;;;;;0.20;0.20;;;;;;;6.20;84.41;99935.91;5100939;28;20047;-68
2023/04/05 00:43:26;;;;;;;0.20;0.20;;;;;;;6.21;84.95;99957.41;5104878;28;20056;-68
2023/04/05 00:45:52;;;;;;;0.10;0.10;;;;;;;6.14;85.07;99951.28;5083744;28;20043;-68
2023/04/05 00:48:18;;;;;;;0.63;0.20;;;;;;;6.13;85.46;99957.78;5104494;28;20059;-68
2023/04/05 00:50:47;;;;;;;0.10;0.10;;;;;;;6.17;85.55;99960.84;5104821;28;20055;-68
2023/04/05 00:53:17;;;;;;;0.10;0.10;;;;;;;6.17;85.53;99960.84;5067969;28;20073;-67
2023/04/05 00:55:46;;;;;;;0.28;0.22;;;;;;;6.08;85.50;99955.78;5104587;28;20309;-67
2023/04/05 00:58:12;;;;;;;0.20;0.20;;;;;;;6.09;85.67;99962.91;5104705;28;20043;-67
2023/04/05 01:00:39;;;;;;;0.10;0.10;;;;;;;6.10;86.04;99961.81;5088466;28;20506;-68
2023/04/05 01:03:06;;;;;;;0.52;0.20;;;;;;;6.06;85.96;99966.06;5104280;28;20040;-68
2023/04/05 01:05:37;;;;;;;0.35;0.10;;;;;;;6.09;86.08;99967.47;5070767;28;20048;-68
2023/04/05 01:08:09;;;;;;;0.28;0.10;;;;;;;6.15;86.07;99973.84;5086221;28;20044;-68
2023/04/05 01:10:41;;;;;;;0.10;0.10;;;;;;;6.15;85.85;99971.13;5103931;28;20044;-68
2023/04/05 01:13:08;;;;;;;0.10;0.10;;;;;;;6.14;85.81;99972.19;5085096;28;20048;-68
2023/04/05 01:15:34;;;;;;;0.10;0.10;;;;;;;6.14;85.87;99966.75;5085343;28;20421;-67
2023/04/05 01:18:03;;;;;;;0.22;0.20;;;;;;;6.14;85.77;99972.19;5083952;28;20142;-68
2023/04/05 01:20:33;;;;;;;0.20;0.20;;;;;;;6.10;85.82;99975.41;5083806;28;20102;-67
2023/04/05 01:23:19;;;;;;;0.13;0.13;;;;;;;6.04;85.86;99979.06;5106386;28;20048;-67
2023/04/05 01:26:30;;;;;;;0.10;0.10;;;;;;;5.97;85.89;99965.59;5103627;28;20051;-68
2023/04/05 01:29:34;;;;;;;0.47;0.20;;;;;;;5.92;86.08;99970.09;5036973;28;20416;-68
2023/04/05 01:32:10;;;;;;;0.20;0.20;;;;;;;5.87;86.24;99968.09;5056096;28;20159;-67
2023/04/05 01:34:45;;;;;;;0.10;0.10;;;;;;;5.76;86.53;99958.91;5084024;28;20427;-68
2023/04/05 01:37:14;;;;;;;0.20;0.13;;;;;;;5.74;86.82;99962.94;5066033;28;20051;-67
2023/04/05 01:39:41;;;;;;;0.52;0.20;;;;;;;5.70;86.94;99967.16;5102042;28;20047;-67
2023/04/05 01:42:09;;;;;;;0.20;0.20;;;;;;;5.63;87.31;99959.19;5086315;28;20518;-67
2023/04/05 01:44:36;;;;;;;0.35;0.30;;;;;;;5.74;86.97;99971.88;5104233;28;20039;-68
2023/04/05 01:47:02;;;;;;;0.13;0.13;;;;;;;5.67;87.12;99973.91;5084510;28;20040;-67
2023/04/05 01:49:28;;;;;;;0.10;0.10;;;;;;;5.59;87.26;99972.41;5104406;28;20148;-68
2023/04/05 01:51:55;;;;;;;0.20;0.20;;;;;;;5.59;87.85;99966.97;5084280;28;20044;-68
2023/04/05 01:54:21;;;;;;;0.10;0.10;;;;;;;5.58;87.45;99964.47;5085657;28;20054;-68
2023/04/05 01:56:47;;;;;;;0.10;0.10;;;;;;;5.51;87.72;99968.16;5085945;28;20142;-68
2023/04/05 01:59:13;;;;;;;0.52;0.20;;;;;;;5.53;87.82;99962.47;5068264;28;20039;-68
2023/04/05 02:01:40;;;;;;;0.10;0.10;;;;;;;5.51;87.98;99967.31;5084099;28;20055;-68
2023/04/05 02:04:06;;;;;;;;;;;;;;;5.52;87.82;99969.81;5103270;28;20036;-68
2023/04/05 02:06:32;;;;;;;0.10;0.10;;;;;;;5.47;87.67;99977.00;5103055;28;20053;-68
2023/04/05 02:09:01;;;;;;;0.17;0.17;;;;;;;5.34;87.69;99981.59;5086060;28;20043;-68
2023/04/05 02:11:27;;;;;;;0.25;0.20;;;;;;;5.31;87.86;99975.84;5103891;28;20088;-68
2023/04/05 02:13:58;;;;;;;0.10;0.10;;;;;;;5.34;88.10;99978.06;5104550;28;20042;-68
2023/04/05 02:16:45;;;;;;;0.10;0.10;;;;;;;5.39;87.89;99987.16;5076609;28;20327;-67
2023/04/05 02:19:12;;;;;;;0.10;0.10;;;;;;;5.37;87.92;99972.97;5102930;28;20056;-68
2023/04/05 02:21:39;;;;;;;0.10;0.10;;;;;;;5.35;87.72;99985.94;5101615;28;20077;-68
2023/04/05 02:24:06;;;;;;;0.10;0.10;;;;;;;5.30;88.00;99990.41;5099462;28;20460;-68
2023/04/05 02:26:32;;;;;;;0.38;0.20;;;;;;;5.28;88.08;99989.84;5102521;28;20047;-68
2023/04/05 02:28:58;;;;;;;0.10;0.10;;;;;;;5.29;88.04;99994.19;5106623;28;20092;-68
2023/04/05 02:31:24;;;;;;;0.32;0.20;;;;;;;5.25;87.89;99994.66;5089345;28;20573;-69
2023/04/05 02:33:53;;;;;;;0.10;0.10;;;;;;;5.19;87.80;99997.50;5072438;28;20039;-69
2023/04/05 02:36:20;;;;;;;0.43;0.20;;;;;;;5.15;87.99;100004.44;5090249;28;20054;-68
2023/04/05 02:38:46;;;;;;;0.10;0.10;;;;;;;5.09;88.38;100003.50;5108578;28;20215;-68
2023/04/05 02:41:13;;;;;;;0.20;0.20;;;;;;;5.08;88.29;100004.56;5105683;28;20107;-67
2023/04/05 02:43:39;;;;;;;0.20;0.20;;;;;;;5.06;88.17;99998.53;5071119;28;20627;-67
2023/04/05 02:46:05;;;;;;;0.10;0.10;;;;;;;5.07;88.07;100003.75;5087055;28;20120;-68
2023/04/05 02:48:33;;;;;;;0.10;0.10;;;;;;;5.04;88.14;100011.50;5087290;28;20044;-68
2023/04/05 02:51:02;;;;;;;0.10;0.10;;;;;;;5.03;88.09;100004.44;5069959;28;20054;-68
2023/04/05 02:53:28;;;;;;;;;;;;;;;5.01;87.98;100007.38;5065673;28;20051;-68
2023/04/05 02:55:59;;;;;;;0.10;0.10;;;;;;;5.06;87.60;100010.19;5086380;28;19930;-67
2023/04/05 02:58:27;;;;;;;0.10;0.10;;;;;;;5.07;87.34;100016.47;5107540;28;20097;-69
2023/04/05 03:00:54;;;;;;;0.10;0.10;;;;;;;5.02;87.07;100019.06;5089229;28;20055;-69
2023/04/05 03:03:28;;;;;;;0.10;0.10;;;;;;;5.00;87.33;100013.03;5105891;28;20135;-68
2023/04/05 03:06:00;;;;;;;0.10;0.10;;;;;;;4.97;87.40;100009.72;5088694;28;20047;-68
2023/04/05 03:08:31;;;;;;;0.20;0.20;;;;;;;4.97;87.17;100020.56;5055597;28;20043;-68
2023/04/05 03:11:02;;;;;;;0.20;0.20;;;;;;;4.97;87.31;100017.03;5090435;28;20062;-68
2023/04/05 03:13:29;;;;;;;0.10;0.10;;;;;;;5.05;87.07;100018.59;5070866;28;20431;-68
2023/04/05 03:15:56;;;;;;;0.13;0.13;;;;;;;5.05;86.75;100021.28;5106277;28;20574;-69
2023/04/05 03:18:25;;;;;;;0.20;0.20;;;;;;;5.01;86.51;100022.81;5072171;28;20048;-69
2023/04/05 03:20:55;;;;;;;0.15;0.15;;;;;;;4.99;86.65;100016.78;5087828;28;20142;-68
2023/04/05 03:23:25;;;;;;;0.65;0.20;;;;;;;5.05;86.58;100024.00;5089072;28;20087;-68
2023/04/05 03:25:57;;;;;;;0.10;0.10;;;;;;;5.12;86.12;100027.41;5069931;28;20948;-68
2023/04/05 03:28:27;;;;;;;0.10;0.10;;;;;;;5.09;85.80;100026.03;5087111;28;20468;-68
2023/04/05 03:30:59;;;;;;;0.20;0.20;;;;;;;5.13;85.72;100018.22;5105066;28;20112;-68
2023/04/05 03:33:25;;;;;;;0.10;0.10;;;;;;;5.22;85.40;100024.13;5070832;28;20513;-68
2023/04/05 03:35:52;;;;;;;0.10;0.10;;;;;;;5.24;84.83;100033.69;5084540;28;20043;-69
2023/04/05 03:38:19;;;;;;;0.10;0.10;;;;;;;5.23;84.68;100037.47;5105955;28;20044;-68
2023/04/05 03:41:04;;;;;;;0.10;0.10;;;;;;;5.21;84.52;100042.28;5072053;28;20055;-68
2023/04/05 03:43:29;;;;;;;;;;;;;;;5.28;84.13;100041.34;5108384;28;20055;-68
2023/04/05 03:45:55;;;;;;;0.17;0.17;;;;;;;5.30;83.76;100047.38;5083292;28;19950;-68
2023/04/05 03:48:22;;;;;;;0.10;0.10;;;;;;;5.28;83.44;100050.31;5068533;28;20266;-69
2023/04/05 03:50:49;;;;;;;0.10;0.10;;;;;;;5.32;83.24;100050.69;5085675;28;20047;-68
2023/04/05 03:53:16;;;;;;;0.20;0.20;;;;;;;5.35;82.95;100055.66;5105217;28;20054;-68
2023/04/05 03:55:48;;;;;;;0.20;0.20;;;;;;;5.42;82.86;100056.34;5088176;28;20043;-68
2023/04/05 03:58:17;;;;;;;0.43;0.20;;;;;;;5.49;82.40;100054.38;5086447;28;20043;-68
2023/04/05 04:00:44;;;;;;;0.10;0.10;;;;;;;5.56;81.81;100058.84;5105082;28;20383;-68
2023/04/05 04:03:17;;;;;;;0.10;0.10;;;;;;;5.54;81.51;100054.47;5057783;28;20039;-68
2023/04/05 04:05:46;;;;;;;0.20;0.20;;;;;;;5.57;81.11;100057.78;5092181;28;20447;-69
2023/04/05 04:08:13;;;;;;;0.20;0.20;;;;;;;5.58;80.99;100062.13;5086794;28;20135;-68
2023/04/05 04:10:39;;;;;;;0.10;0.10;;;;;;;5.60;80.56;100068.16;5087664;28;20138;-68
2023/04/05 04:13:14;;;;;;;0.10;0.10;;;;;;;5.57;80.16;100069.47;5088114;28;20144;-68
2023/04/05 04:15:42;;;;;;;0.20;0.20;;;;;;;5.60;79.98;100071.69;5087827;28;20258;-68
2023/04/05 04:18:34;;;;;;;0.20;0.20;;;;;;;5.61;79.70;100072.50;5071151;28;20147;-68
2023/04/05 04:21:20;;;;;;;0.13;0.13;;;;;;;5.60;79.31;100074.41;5103878;28;20067;-68
2023/04/05 04:23:59;;;;;;;0.20;0.20;;;;;;;5.65;79.18;100079.13;5087572;28;20057;-69
2023/04/05 04:26:44;;;;;;;0.40;0.20;;;;;;;5.65;78.97;100076.44;5106189;28;20077;-68
2023/04/05 04:29:37;;;;;;;0.20;0.20;;;;;;;5.72;78.49;100079.84;5081137;28;21096;-67
2023/04/05 04:32:25;;;;;;;0.20;0.20;;;;;;;5.81;78.03;100088.44;5084080;28;20541;-68
2023/04/05 04:35:14;;;;;;;0.20;0.20;;;;;;;5.86;77.73;100090.47;5068560;28;20061;-68
2023/04/05 04:38:06;;;;;;;0.60;0.30;;;;;;;5.91;77.78;100087.84;5068411;28;20478;-68
2023/04/05 04:41:05;;;;;;;0.15;0.15;;;;;;;5.95;77.01;100089.88;5042530;28;20056;-68
2023/04/05 04:44:01;;;;;;;0.20;0.20;;;;;;;6.00;76.61;100094.59;5087165;28;20127;-69
2023/04/05 04:46:41;;;;;;;0.95;0.20;;;;;;;6.01;76.61;100095.41;5092650;28;20498;-69
2023/04/05 04:49:16;;;;;;;0.20;0.20;;;;;;;5.99;76.47;100094.81;5086166;28;20051;-69
2023/04/05 04:51:46;;;;;;;0.10;0.10;;;;;;;6.06;76.41;100099.09;5100482;28;20051;-69
2023/04/05 04:54:15;;;;;;;0.20;0.20;;;;;;;6.13;75.82;100085.38;5082172;28;20071;-69
2023/04/05 04:56:41;;;;;;;0.20;0.20;;;;;;;6.21;75.60;100092.34;5099653;28;20044;-68
2023/04/05 04:59:08;;;;;;;0.17;0.17;;;;;;;6.24;75.40;100089.13;5083324;28;20421;-69
2023/04/05 05:01:34;;;;;;;0.20;0.20;;;;;;;6.33;75.02;100089.63;5081076;28;20043;-69
2023/04/05 05:04:02;;;;;;;0.10;0.10;;;;;;;6.43;74.66;100095.25;5083895;28;20051;-69
2023/04/05 05:06:33;;;;;;;0.10;0.10;;;;;;;6.49;74.13;100093.47;5067741;28;20045;-68
2023/04/05 05:09:00;;;;;;;0.13;0.13;;;;;;;6.50;73.68;100098.69;5067233;28;20039;-69
2023/04/05 05:11:27;;;;;;;0.80;0.30;;;;;;;6.50;73.80;100105.97;5061254;28;20052;-68
2023/04/05 05:13:54;;;;;;;0.20;0.20;;;;;;;6.53;73.76;100103.63;5078566;28;20093;-68
2023/04/05 05:16:23;;;;;;;0.20;0.20;;;;;;;6.53;73.76;100103.63;5079031;28;20074;-68
2023/04/05 05:18:50;;;;;;;0.20;0.20;;;;;;;6.53;73.42;100105.50;5060417;28;20064;-69
2023/04/05 05:21:16;;;;;;;0.20;0.20;;;;;;;6.52;73.30;100110.13;5078474;28;20043;-69
2023/04/05 05:23:44;;;;;;;0.52;0.30;;;;;;;6.57;72.88;100111.28;5060694;28;20055;-69
2023/04/05 05:26:12;;;;;;;0.20;0.20;;;;;;;6.61;72.80;100117.88;5103044;28;20048;-68
2023/04/05 05:28:38;;;;;;;;;;;;;;;6.57;72.45;100122.16;5099069;28;20130;-68
2023/04/05 05:31:05;;;;;;;0.30;0.30;;;;;;;6.59;72.15;100118.13;5096754;28;20408;-68
2023/04/05 05:33:34;;;;;;;0.20;0.20;;;;;;;6.66;71.99;100120.72;5086096;28;20048;-68
2023/04/05 05:36:02;;;;;;;0.30;0.30;;;;;;;6.69;71.59;100113.97;5089295;28;20134;-68
2023/04/05 05:38:28;;;;;;;0.20;0.20;;;;;;;6.69;71.35;100122.94;5106900;28;20100;-68
2023/04/05 05:40:56;;;;;;;0.30;0.30;;;;;;;6.68;71.27;100121.31;5085376;28;20468;-68
2023/04/05 05:43:22;;;;;;;0.20;0.20;;;;;;;6.76;70.92;100120.91;5104635;28;20057;-69
2023/04/05 05:45:49;;;;;;;0.30;0.30;;;;;;;6.90;70.55;100123.34;5107119;28;20066;-69
2023/04/05 05:48:15;;;;;;;0.43;0.32;;;;;;;7.07;69.99;100128.84;5099401;28;20499;-70
2023/04/05 05:50:41;;;;;;;0.32;0.30;;;;;;;7.19;69.64;100128.78;5107082;28;20502;-69
2023/04/05 05:53:07;;;;;;;0.22;0.22;;;;;;;7.23;69.14;100111.72;5103776;28;20048;-68
2023/04/05 05:55:33;;;;;;;0.55;0.38;;;;;;;7.45;68.47;100130.06;5098539;28;20059;-69
2023/04/05 05:58:01;;;;;;;0.20;0.20;;;;;;;7.59;67.96;100135.19;5100050;28;20039;-68
2023/04/05 06:00:27;;;;;;;0.28;0.28;;;;;;;7.72;67.53;100132.13;5103504;28;20075;-68
2023/04/05 06:02:54;;;;;;;0.30;0.30;;;;;;;7.83;66.87;100127.66;5087449;28;20048;-68
2023/04/05 06:05:20;;;;;;;0.47;0.32;;;;;;;7.84;66.50;100128.50;5087551;28;20329;-69
2023/04/05 06:07:46;;;;;;;0.20;0.20;;;;;;;7.79;66.69;100135.50;5059436;28;20044;-68
2023/04/05 06:10:13;;;;;;;0.28;0.28;;;;;;;7.79;66.65;100132.78;5100658;28;20126;-68
2023/04/05 06:12:40;;;;;;;0.20;0.20;;;;;;;7.79;66.21;100135.50;5100966;28;20043;-68
2023/04/05 06:15:09;;;;;;;0.43;0.20;;;;;;;7.83;66.29;100135.84;5090016;28;20054;-69
2023/04/05 06:17:40;;;;;;;0.43;0.30;;;;;;;7.87;66.19;100142.44;5109048;28;20048;-67
2023/04/05 06:20:08;;;;;;;0.38;0.30;;;;;;;7.95;65.73;100144.75;5109591;28;20132;-68
2023/04/05 06:22:35;;;;;;;0.30;0.30;;;;;;;7.98;65.61;100139.88;5092025;28;20071;-69
2023/04/05 06:25:01;;;;;;;0.38;0.30;;;;;;;8.07;65.52;100136.47;5109798;28;20036;-68
2023/04/05 06:27:31;;;;;;;0.47;0.30;;;;;;;8.25;64.98;100142.72;5108601;28;20120;-68
2023/04/05 06:29:58;;;;;;;0.30;0.30;;;;;;;8.42;64.51;100148.13;5088816;28;20036;-69
2023/04/05 06:32:33;;;;;;;0.20;0.20;;;;;;;8.59;63.94;100152.72;5109844;28;20047;-68
2023/04/05 06:35:02;;;;;;;0.43;0.32;;;;;;;8.71;63.29;100150.72;5089773;28;20143;-68
2023/04/05 06:37:30;;;;;;;0.28;0.28;;;;;;;8.83;63.03;100153.31;5054801;28;20055;-68
2023/04/05 06:39:58;;;;;;;0.20;0.20;;;;;;;8.90;62.89;100150.38;5093335;28;20048;-69
2023/04/05 06:42:24;;;;;;;0.32;0.32;;;;;;;8.93;62.68;100150.72;5115359;28;20111;-68
2023/04/05 06:44:57;;;;;;;0.40;0.30;;;;;;;9.06;62.30;100157.66;5094104;28;20134;-69
2023/04/05 06:47:24;;;;;;;1.40;0.40;;;;;;;9.17;61.84;100152.31;5072021;28;20097;-69
2023/04/05 06:49:51;;;;;;;0.28;0.28;;;;;;;9.25;61.64;100159.22;5091267;28;20127;-69
2023/04/05 06:52:17;;;;;;;;;;;;;;;9.49;61.33;100154.28;5114836;28;20143;-69
2023/04/05 06:54:43;;;;;;;0.80;0.40;;;;;;;9.80;60.66;100151.81;5104151;28;19967;-69
2023/04/05 06:57:09;;;;;;;0.38;0.30;;;;;;;10.01;59.72;100157.41;5108544;28;20055;-69
2023/04/05 06:59:36;;;;;;;0.85;0.50;;;;;;;10.07;59.35;100157.19;5101649;28;20043;-69
2023/04/05 07:02:02;;;;;;;0.30;0.30;;;;;;;10.16;59.09;100154.78;5080263;28;20126;-68
2023/04/05 07:04:32;;;;;;;0.30;0.30;;;;;;;10.35;58.78;100149.72;5106314;28;20130;-69
2023/04/05 07:07:01;;;;;;;0.40;0.40;;;;;;;10.60;58.30;100152.88;5073259;28;20820;-69
2023/04/05 07:09:29;;;;;;;0.63;0.20;;;;;;;10.80;57.36;100159.50;5102782;27;20040;-69
2023/04/05 07:11:56;;;;;;;0.70;0.30;;;;;;;10.89;57.16;100158.72;5117509;27;20404;-73
2023/04/05 07:14:22;;;;;;;0.63;0.40;;;;;;;10.96;56.79;100155.75;5126984;27;20134;-69
2023/04/05 07:16:48;;;;;;;0.55;0.30;;;;;;;11.00;56.63;100156.03;5128412;27;20159;-69
2023/04/05 07:19:14;;;;;;;0.52;0.30;;;;;;;11.14;56.47;100154.44;5108428;27;20085;-69
2023/04/05 07:21:40;;;;;;;0.65;0.50;;;;;;;11.19;56.22;100150.88;5118523;27;20051;-69
2023/04/05 07:24:08;;;;;;;0.30;0.30;;;;;;;11.24;55.95;100152.78;5088065;28;20040;-68
2023/04/05 07:26:36;;;;;;;0.30;0.30;;;;;;;11.16;55.92;100152.25;5100458;28;20123;-69
2023/04/05 07:29:03;;;;;;;0.50;0.30;;;;;;;11.12;56.10;100155.78;5075786;28;20070;-69
2023/04/05 07:31:30;;;;;;;0.40;0.40;;;;;;;11.02;56.42;100153.84;5088414;28;20048;-69
2023/04/05 07:33:57;;;;;;;0.40;0.40;;;;;;;10.92;56.53;100158.19;5101645;28;20502;-69
2023/04/05 07:36:23;;;;;;;0.57;0.40;;;;;;;10.96;56.25;100157.66;5104731;28;20988;-69
2023/04/05 07:38:50;;;;;;;0.40;0.40;;;;;;;11.04;55.61;100166.19;5079126;28;20050;-68
2023/04/05 07:41:18;;;;;;;0.30;0.30;;;;;;;11.28;55.18;100162.94;5107241;27;20100;-68
2023/04/05 07:43:45;;;;;;;0.30;0.30;;;;;;;11.59;54.24;100159.44;5098269;28;20048;-68
2023/04/05 07:46:11;;;;;;;0.40;0.40;;;;;;;11.90;53.61;100162.97;5076241;28;20083;-68
2023/04/05 07:48:37;;;;;;;0.65;0.40;;;;;;;12.20;53.08;100169.56;5105827;28;20043;-69
2023/04/05 07:51:05;;;;;;;0.30;0.30;;;;;;;12.48;52.74;100156.34;5105468;28;20506;-68
2023/04/05 07:53:32;;;;;;;0.30;0.30;;;;;;;12.76;51.79;100159.53;5102140;28;20506;-68
2023/04/05 07:56:02;;;;;;;0.30;0.30;;;;;;;12.87;51.37;100154.00;5104127;27;20488;-68
2023/04/05 07:58:31;;;;;;;0.40;0.40;;;;;;;13.19;50.35;100156.31;5096313;28;20039;-68
2023/04/05 08:00:59;;;;;;;0.35;0.35;;;;;;;13.41;49.71;100157.78;5107125;28;20419;-68
2023/04/05 08:03:26;;;;;;;0.40;0.40;;;;;;;13.50;49.55;100159.97;5072606;28;20051;-68
2023/04/05 08:05:52;;;;;;;0.30;0.30;;;;;;;13.97;48.75;100161.25;5112857;27;20046;-68
2023/04/05 08:08:18;;;;;;;0.40;0.40;;;;;;;14.58;47.26;100160.91;5091052;28;20459;-68
2023/04/05 08:10:44;;;;;;;0.60;0.50;;;;;;;15.05;45.54;100163.94;5104922;28;20054;-69
2023/04/05 08:13:10;;;;;;;0.35;0.35;;;;;;;15.47;44.78;100168.88;5104759;28;20410;-68
2023/04/05 08:15:39;;;;;;;0.40;0.40;;;;;;;15.84;43.46;100162.50;5102729;28;20501;-69
2023/04/05 08:18:05;;;;;;;0.32;0.32;;;;;;;15.79;43.34;100162.56;5102979;28;20046;-69
2023/04/05 08:20:37;;;;;;;0.52;0.43;;;;;;;15.25;44.39;100164.75;5103201;28;20055;-68
2023/04/05 08:23:03;;;;;;;0.40;0.40;;;;;;;14.82;45.47;100160.91;5072287;28;20077;-68
2023/04/05 08:25:30;;;;;;;1.02;0.50;;;;;;;14.77;45.25;100169.25;5105836;28;20533;-68
2023/04/05 08:27:56;;;;;;;0.40;0.40;;;;;;;14.90;45.50;100164.94;5094201;28;20044;-68
2023/04/05 08:30:22;;;;;;;0.30;0.30;;;;;;;15.07;45.37;100164.44;5103677;28;20051;-68
2023/04/05 08:32:49;;;;;;;0.75;0.50;;;;;;;15.40;44.44;100150.75;5103949;28;20100;-69
2023/04/05 08:35:15;;;;;;;;;;;;;;;15.95;43.48;100165.06;5104716;28;20046;-68
2023/04/05 08:37:41;;;;;;;0.47;0.47;;;;;;;16.24;42.93;100158.50;5103889;28;19930;-69
2023/04/05 08:40:08;;;;;;;0.40;0.40;;;;;;;16.55;41.92;100164.28;5075316;28;20048;-68
2023/04/05 08:42:41;;;;;;;0.50;0.50;;;;;;;16.64;41.33;100161.59;4744598;28;10000313;-69
2023/04/05 08:45:10;;;;;;;0.50;0.50;;;;;;;16.55;41.87;100164.28;5098823;28;20363;-69
2023/04/05 08:47:37;;;;;;;0.50;0.50;;;;;;;16.99;40.81;100159.25;5098983;28;20529;-69
2023/04/05 08:50:09;;;;;;;0.50;0.50;;;;;;;17.26;40.10;100160.31;5093819;28;20040;-68
2023/04/05 08:52:38;;;;;;;0.68;0.50;;;;;;;17.40;40.14;100151.16;5091542;28;20054;-69
2023/04/05 08:55:05;;;;;;;0.85;0.70;;;;;;;17.63;39.59;100162.25;5097802;28;20248;-69
2023/04/05 08:57:33;;;;;;;0.50;0.50;;;;;;;18.28;38.64;100157.28;5093224;28;20058;-69
2023/04/05 09:00:00;;;;;;;;;;;;;;;18.45;37.81;100158.50;5095263;28;20514;-68
2023/04/05 09:02:27;;;;;;;0.60;0.60;;;;;;;18.17;38.24;100155.91;5106531;27;19923;-68
2023/04/05 09:04:53;;;;;;;;;;;;;;;18.24;37.90;100157.09;5101886;28;20048;-68
2023/04/05 09:07:22;;;;;;;0.60;0.60;;;;;;;18.75;37.46;100159.59;5104886;28;20412;-68
2023/04/05 09:09:51;;;;;;;0.52;0.52;;;;;;;19.28;36.14;100151.38;5105856;28;20047;-69
2023/04/05 09:12:21;;;;;;;0.63;0.60;;;;;;;19.11;36.52;100152.19;5106119;28;20039;-68
2023/04/05 09:14:49;;;;;;;0.50;0.50;;;;;;;18.74;37.17;100163.50;5105583;28;20054;-68
2023/04/05 09:17:21;;;;;;;0.60;0.60;;;;;;;18.78;36.57;100158.13;5104301;28;20469;-67
2023/04/05 09:19:51;;;;;;;0.70;0.70;;;;;;;19.09;36.16;100165.53;5062549;28;20534;-68
2023/04/05 09:22:18;;;;;;;0.70;0.70;;;;;;;19.40;35.44;100151.56;5097196;28;20051;-69
2023/04/05 09:24:46;;;;;;;0.70;0.70;;;;;;;19.83;34.74;100152.66;5102931;28;20054;-68
2023/04/05 09:27:16;;;;;;;0.80;0.80;;;;;;;20.19;34.22;100156.19;5106081;28;20047;-68
2023/04/05 09:29:46;;;;;;;0.70;0.70;;;;;;;20.57;33.56;100149.03;5090082;28;20052;-68
2023/04/05 09:32:12;;;;;;;;;;;;;;;21.11;32.48;100147.59;5073052;28;20122;-68
2023/04/05 09:34:39;;;;;;;0.63;0.63;;;;;;;21.18;32.20;100152.59;5111322;28;19952;-68
2023/04/05 09:37:14;;;;;;;0.70;0.70;;;;;;;21.19;32.00;100157.84;5060488;28;20044;-68
2023/04/05 09:39:41;;;;;;;0.80;0.80;;;;;;;21.51;31.81;100144.34;5107719;27;20562;-68
2023/04/05 09:42:10;;;;;;;0.90;0.90;;;;;;;22.11;31.15;100159.97;5107626;28;20546;-68
2023/04/05 09:44:51;;;;;;;0.90;0.90;;;;;;;22.84;29.96;100148.44;5099176;28;20409;-68
2023/04/05 09:47:19;;;;;;;0.88;0.88;;;;;;;23.20;28.89;100147.56;5107522;28;20035;-68
2023/04/05 09:49:47;;;;;;;1.00;1.00;;;;;;;23.22;29.22;100142.44;5098767;28;20057;-68
2023/04/05 09:52:23;;;;;;;0.93;0.93;;;;;;;23.41;28.58;100146.59;5110399;28;20539;-68
2023/04/05 09:54:51;;;;;;;1.17;1.00;;;;;;;23.31;28.72;100152.66;5093962;28;20680;-68
2023/04/05 09:57:19;;;;;;;0.90;0.90;;;;;;;23.07;28.45;100141.19;5107271;28;20553;-68
2023/04/05 09:59:46;;;;;;;0.90;0.90;;;;;;;23.09;28.58;100144.44;5099863;28;20048;-68
2023/04/05 10:02:12;;;;;;;1.00;1.00;;;;;;;23.48;28.31;100134.84;5107115;28;20150;-68
2023/04/05 10:04:40;;;;;;;0.90;0.90;;;;;;;23.49;28.02;100131.69;5105343;28;20039;-68
2023/04/05 10:07:07;;;;;;;1.27;1.00;;;;;;;23.22;28.45;100131.28;5111003;27;20172;-67
2023/04/05 10:09:34;;;;;;;0.90;0.90;;;;;;;23.22;28.48;100142.44;5111397;27;20043;-69
2023/04/05 10:12:01;;;;;;;1.00;1.00;;;;;;;23.68;27.82;100127.44;5103766;28;20040;-68
2023/04/05 10:14:29;;;;;;;0.93;0.93;;;;;;;23.86;27.38;100136.28;5098664;28;20047;-68
2023/04/05 10:17:02;;;;;;;0.90;0.90;;;;;;;24.37;26.83;100134.84;5097126;28;20088;-69
2023/04/05 10:19:36;;;;;;;0.90;0.90;;;;;;;24.82;26.12;100137.50;5100415;27;20074;-69
2023/04/05 10:22:09;;;;;;;1.00;1.00;;;;;;;25.13;25.98;100131.00;5101346;28;20085;-69
2023/04/05 10:24:44;;;;;;;1.00;1.00;;;;;;;25.37;25.59;100136.69;5113033;27;20344;-69
2023/04/05 10:27:18;;;;;;;1.10;1.10;;;;;;;24.81;26.20;100131.09;5106491;27;20138;-69
2023/04/05 10:29:50;;;;;;;1.10;1.00;;;;;;;24.89;26.55;100132.88;5104532;28;20050;-70
2023/04/05 10:32:28;;;;;;;1.20;1.10;;;;;;;25.67;25.72;100136.13;4753380;27;10000695;-69
2023/04/05 10:35:00;;;;;;;1.00;1.00;;;;;;;26.03;25.15;100131.19;5108576;27;20821;-69
2023/04/05 10:37:35;;;;;;;1.10;1.10;;;;;;;25.98;24.88;100131.50;5093618;28;20043;-69
2023/04/05 10:40:07;;;;;;;1.88;1.75;;;;;;;26.17;24.89;100122.22;5105495;27;20081;-69
2023/04/05 10:42:40;;;;;;;1.10;1.10;;;;;;;25.78;25.35;100137.16;5114880;27;20043;-68
2023/04/05 10:45:13;;;;;;;1.10;1.10;;;;;;;25.64;25.25;100134.88;5095595;27;20617;-69
2023/04/05 10:47:46;;;;;;;1.10;1.10;;;;;;;25.17;25.70;100129.09;5096885;28;20044;-69
2023/04/05 10:50:19;;;;;;;1.30;1.20;;;;;;;24.60;26.57;100129.41;5096655;28;20052;-69
2023/04/05 10:52:47;;;;;;;1.10;1.10;;;;;;;24.43;26.66;100126.97;5095472;28;20073;-68
2023/04/05 10:55:16;;;;;;;1.10;1.10;;;;;;;24.23;27.00;100128.88;5097181;28;20564;-69
2023/04/05 10:57:44;;;;;;;1.02;1.02;;;;;;;24.19;26.99;100137.97;5096661;28;20511;-68
2023/04/05 11:00:14;;;;;;;0.85;0.85;;;;;;;23.88;27.45;100139.53;5099186;28;20051;-68
2023/04/05 11:02:41;;;;;;;0.80;0.80;;;;;;;22.99;28.42;100139.38;5105920;28;20052;-69
2023/04/05 11:05:28;;;;;;;0.90;0.90;;;;;;;22.23;29.55;100136.91;5104527;28;20448;-68
2023/04/05 11:07:58;;;;;;;0.90;0.90;;;;;;;22.21;29.36;100128.91;5109281;28;20039;-68
2023/04/05 11:10:26;;;;;;;0.90;0.90;;;;;;;22.07;29.81;100128.41;5106256;28;20211;-69
2023/04/05 11:13:03;;;;;;;0.82;0.82;;;;;;;22.20;29.76;100124.50;5104642;28;20038;-68
2023/04/05 11:15:31;;;;;;;;;;;;;;;22.52;29.34;100123.94;5103464;28;20043;-68
2023/04/05 11:18:08;;;;;;;1.00;1.00;;;;;;;23.26;28.47;100134.22;5104830;28;19973;-68
2023/04/05 11:20:42;;;;;;;1.30;1.10;;;;;;;23.82;27.67;100126.19;5090305;28;20062;-69
2023/04/05 11:23:10;;;;;;;1.10;1.10;;;;;;;24.02;27.66;100119.59;5104287;27;20074;-68
2023/04/05 11:25:44;;;;;;;1.10;1.10;;;;;;;24.37;26.90;100115.28;5107968;27;20044;-68
2023/04/05 11:28:22;;;;;;;1.00;1.00;;;;;;;24.28;26.72;100112.66;5105251;28;20450;-68
2023/04/05 11:30:50;;;;;;;1.20;1.10;;;;;;;24.18;26.85;100108.41;5100075;28;20051;-69
2023/04/05 11:33:53;;;;;;;1.10;1.10;;;;;;;24.26;26.95;100116.97;5096565;28;20067;-69
2023/04/05 11:36:30;;;;;;;1.10;1.10;;;;;;;24.39;26.73;100109.31;5097058;28;20054;-69
2023/04/05 11:39:29;;;;;;;1.20;1.10;;;;;;;24.29;26.58;100105.09;5076100;28;20036;-69
2023/04/05 11:42:00;;;;;;;1.20;1.10;;;;;;;24.12;26.84;100106.25;5073067;28;20043;-68
2023/04/05 11:44:27;;;;;;;1.30;1.20;;;;;;;24.09;26.91;100102.22;5086535;28;20035;-68
2023/04/05 11:46:56;;;;;;;1.30;1.20;;;;;;;24.35;26.56;100109.22;5106172;27;20082;-69